Time;durP1;ratioP1;P1;durP2;ratioP2;P2;SDS_P1;SDS_P2;PMS_P1;PMS_P2;Temp;Humidity;BMP_temperature;BMP_pressure;BME280_temperature;BME280_humidity;BME280_pressure;Samples;Min_cycle;Max_cycle;Signal;HPM_P1;HPM_P2
2022/06/24 00:00:10;;;;;;;3.92;2.17;;;22.10;62.20;;;;;;4981913;28;20097;-80
2022/06/24 00:02:38;;;;;;;3.63;2.63;;;22.10;62.30;;;;;;4985754;28;20089;-77
2022/06/24 00:05:07;;;;;;;5.18;2.28;;;22.00;62.40;;;;;;4978746;28;20030;-77
2022/06/24 00:07:51;;;;;;;4.18;2.13;;;22.00;62.60;;;;;;4985017;28;20031;-78
2022/06/24 00:10:22;;;;;;;5.47;2.42;;;21.90;62.80;;;;;;4982510;28;20026;-82
2022/06/24 00:12:50;;;;;;;2.72;1.80;;;21.90;63.00;;;;;;4974934;28;20379;-78
2022/06/24 00:15:23;;;;;;;4.03;2.10;;;21.90;62.90;;;;;;4982855;28;20035;-79
2022/06/24 00:17:49;;;;;;;6.25;2.33;;;21.80;63.10;;;;;;4974293;28;20043;-79
2022/06/24 00:20:18;;;;;;;2.10;1.80;;;21.80;63.40;;;;;;4981134;28;20562;-79
2022/06/24 00:22:46;;;;;;;2.92;1.77;;;21.80;63.40;;;;;;4972973;28;20055;-80
2022/06/24 00:25:17;;;;;;;2.72;1.75;;;21.70;63.30;;;;;;4973881;28;20030;-80
2022/06/24 00:28:04;;;;;;;1.80;1.50;;;21.80;63.50;;;;;;4973654;28;20039;-79
2022/06/24 00:30:53;;;;;;;4.22;2.30;;;21.70;63.70;;;;;;4970698;28;20381;-79
2022/06/24 00:33:21;;;;;;;4.22;1.42;;;21.70;64.30;;;;;;4973966;28;20034;-79
2022/06/24 00:35:59;;;;;;;3.53;1.50;;;21.70;63.70;;;;;;4974987;28;20035;-81
2022/06/24 00:38:29;;;;;;;2.80;2.00;;;21.70;63.80;;;;;;4971635;28;20122;-79
2022/06/24 00:41:05;;;;;;;4.10;1.40;;;21.60;63.90;;;;;;4973467;28;20110;-79
2022/06/24 00:43:33;;;;;;;1.90;1.58;;;21.60;64.00;;;;;;4971541;28;20041;-80
2022/06/24 00:46:27;;;;;;;1.60;1.23;;;21.60;64.30;;;;;;4979508;28;20455;-78
2022/06/24 00:48:54;;;;;;;1.85;1.60;;;21.60;64.50;;;;;;4989990;28;20038;-81
2022/06/24 00:51:22;;;;;;;2.22;1.63;;;21.50;64.40;;;;;;4975985;28;20043;-80
2022/06/24 00:53:47;;;;;;;2.75;1.45;;;21.50;64.20;;;;;;4976795;28;20396;-80
2022/06/24 00:56:15;;;;;;;2.25;1.33;;;21.50;64.50;;;;;;4985046;28;20031;-80
2022/06/24 00:58:53;;;;;;;2.03;1.55;;;21.50;64.50;;;;;;4990237;28;20039;-82
2022/06/24 01:01:26;;;;;;;1.65;1.27;;;21.40;64.60;;;;;;4975533;28;20041;-80
2022/06/24 01:03:54;;;;;;;1.40;1.30;;;21.40;64.80;;;;;;4976269;28;20031;-80
2022/06/24 01:06:19;;;;;;;2.00;1.10;;;21.40;65.00;;;;;;4986787;28;20330;-79
2022/06/24 01:08:45;;;;;;;2.63;1.58;;;21.30;65.10;;;;;;4974871;28;20046;-80
2022/06/24 01:11:11;;;;;;;2.75;1.88;;;21.30;65.10;;;;;;4988992;28;20034;-79
2022/06/24 01:13:37;;;;;;;2.70;1.80;;;21.30;64.70;;;;;;4980528;28;20034;-79
2022/06/24 01:16:02;;;;;;;3.20;1.48;;;21.30;64.90;;;;;;4986917;28;20038;-81
2022/06/24 01:18:28;;;;;;;4.80;1.95;;;21.30;65.00;;;;;;4988689;28;20045;-81
2022/06/24 01:20:53;;;;;;;7.28;1.45;;;21.20;65.00;;;;;;4995527;28;20081;-79
2022/06/24 01:23:23;;;;;;;2.65;1.40;;;21.20;64.90;;;;;;4994653;28;20037;-78
2022/06/24 01:25:49;;;;;;;3.63;1.65;;;21.20;65.60;;;;;;4970952;28;20090;-79
2022/06/24 01:28:14;;;;;;;1.55;1.30;;;21.20;64.90;;;;;;4985183;28;20038;-80
2022/06/24 01:30:40;;;;;;;2.40;1.20;;;21.20;64.70;;;;;;4978043;28;20030;-79
2022/06/24 01:33:06;;;;;;;1.85;1.02;;;21.20;64.40;;;;;;4981678;28;20033;-82
2022/06/24 01:35:32;;;;;;;1.85;1.02;;;21.20;64.60;;;;;;4980524;28;20042;-83
2022/06/24 01:37:57;;;;;;;2.80;1.20;;;21.20;64.80;;;;;;4976517;28;20035;-79
2022/06/24 01:40:23;;;;;;;3.95;1.38;;;21.20;64.70;;;;;;4979261;28;20035;-79
2022/06/24 01:42:48;;;;;;;8.98;1.42;;;21.20;64.80;;;;;;4988987;28;20121;-81
2022/06/24 01:45:14;;;;;;;1.65;1.30;;;21.20;64.50;;;;;;4987263;28;20484;-80
2022/06/24 01:47:39;;;;;;;3.75;1.60;;;21.20;64.40;;;;;;4977961;28;20130;-79
2022/06/24 01:50:05;;;;;;;1.52;1.10;;;21.20;64.70;;;;;;4983581;28;20045;-80
2022/06/24 01:52:31;;;;;;;2.90;1.70;;;21.20;64.50;;;;;;4988497;28;20089;-82
2022/06/24 01:54:56;;;;;;;1.80;1.30;;;21.20;64.70;;;;;;4980377;28;20483;-82
2022/06/24 01:57:22;;;;;;;3.75;1.02;;;21.20;64.10;;;;;;4999883;28;20038;-82
2022/06/24 01:59:47;;;;;;;2.03;1.30;;;21.20;64.40;;;;;;4984753;28;20019;-80
2022/06/24 02:02:14;;;;;;;1.83;1.40;;;21.20;64.40;;;;;;4983135;28;20027;-79
2022/06/24 02:04:39;;;;;;;1.33;1.02;;;21.20;64.50;;;;;;4983100;28;20046;-81
2022/06/24 02:07:05;;;;;;;2.08;1.20;;;21.20;65.40;;;;;;4985295;28;20545;-80
2022/06/24 02:09:30;;;;;;;1.90;1.17;;;21.20;64.90;;;;;;4982962;28;20047;-81
2022/06/24 02:14:40;;;;;;;1.55;1.08;;;21.20;65.00;;;;;;4992904;28;20042;-79
2022/06/24 02:17:05;;;;;;;2.08;1.05;;;21.10;64.80;;;;;;4987046;28;20042;-79
2022/06/24 02:19:32;;;;;;;2.33;1.20;;;21.10;64.80;;;;;;4991271;28;20039;-80
2022/06/24 02:21:58;;;;;;;1.42;0.95;;;21.10;64.90;;;;;;4981277;28;20097;-83
2022/06/24 02:24:23;;;;;;;1.67;1.05;;;21.10;64.90;;;;;;4981658;28;20030;-80
2022/06/24 02:26:49;;;;;;;1.65;1.10;;;21.10;64.80;;;;;;4982823;28;20043;-78
2022/06/24 02:29:14;;;;;;;4.03;1.23;;;21.10;64.60;;;;;;4977915;28;20038;-83
2022/06/24 02:31:40;;;;;;;3.25;1.38;;;21.10;64.60;;;;;;4984180;28;20530;-79
2022/06/24 02:34:06;;;;;;;1.45;1.08;;;21.10;65.10;;;;;;4978133;28;20042;-81
2022/06/24 02:36:31;;;;;;;2.67;1.23;;;21.10;65.10;;;;;;4974954;28;20039;-79
2022/06/24 02:38:57;;;;;;;2.05;1.00;;;21.00;65.30;;;;;;4972648;28;20029;-79
2022/06/24 02:41:22;;;;;;;3.70;1.40;;;21.00;65.50;;;;;;4983622;28;20066;-79
2022/06/24 02:43:48;;;;;;;2.80;1.42;;;21.00;65.40;;;;;;4973779;28;20081;-78
2022/06/24 02:46:16;;;;;;;7.15;1.35;;;21.00;65.50;;;;;;4982748;28;20038;-80
2022/06/24 02:48:43;;;;;;;2.85;0.95;;;20.90;65.60;;;;;;4986288;28;20030;-79
2022/06/24 02:51:11;;;;;;;1.92;1.20;;;20.90;65.70;;;;;;5000107;28;20458;-80
2022/06/24 02:53:37;;;;;;;5.60;1.33;;;20.90;65.70;;;;;;4987542;28;20106;-79
2022/06/24 02:56:08;;;;;;;2.55;1.45;;;20.90;65.80;;;;;;4985628;28;20472;-80
2022/06/24 02:58:34;;;;;;;3.50;1.10;;;20.80;65.70;;;;;;4991471;28;20037;-79
2022/06/24 03:01:00;;;;;;;2.00;1.20;;;20.80;65.70;;;;;;4999875;28;20102;-83
2022/06/24 03:03:27;;;;;;;2.85;1.27;;;20.80;66.40;;;;;;4973024;28;20045;-82
2022/06/24 03:05:52;;;;;;;2.35;1.25;;;20.80;65.90;;;;;;4979291;28;20096;-78
2022/06/24 03:08:19;;;;;;;1.55;1.10;;;20.80;66.40;;;;;;4982416;28;20727;-79
2022/06/24 03:10:45;;;;;;;5.15;1.70;;;20.80;66.60;;;;;;4974100;28;20043;-79
2022/06/24 03:13:11;;;;;;;2.83;1.25;;;20.80;66.70;;;;;;4988480;28;20097;-80
2022/06/24 03:15:37;;;;;;;2.35;1.50;;;20.70;67.60;;;;;;4987302;28;20077;-79
2022/06/24 03:18:03;;;;;;;2.58;1.30;;;20.80;67.70;;;;;;4989409;28;20505;-79
2022/06/24 03:20:29;;;;;;;11.43;1.42;;;20.70;68.00;;;;;;4973737;28;20077;-83
2022/06/24 03:22:55;;;;;;;2.05;1.25;;;20.70;67.90;;;;;;4976579;28;20034;-79
2022/06/24 03:25:20;;;;;;;4.10;1.30;;;20.70;68.20;;;;;;4982203;28;20046;-79
2022/06/24 03:27:46;;;;;;;3.35;1.13;;;20.70;68.30;;;;;;4977077;28;20039;-80
2022/06/24 03:30:13;;;;;;;2.88;1.30;;;20.70;68.40;;;;;;4977086;28;20475;-80
2022/06/24 03:32:39;;;;;;;3.53;1.45;;;20.80;68.60;;;;;;4971789;28;20026;-80
2022/06/24 03:35:05;;;;;;;1.92;1.38;;;20.80;69.00;;;;;;4974103;28;20033;-79
2022/06/24 03:37:32;;;;;;;3.15;1.20;;;20.80;69.20;;;;;;4986344;28;20491;-81
2022/06/24 03:39:58;;;;;;;1.58;1.17;;;20.80;69.00;;;;;;4990197;28;20073;-83
2022/06/24 03:42:24;;;;;;;1.50;1.20;;;20.80;68.80;;;;;;4986502;28;20041;-81
2022/06/24 03:44:50;;;;;;;4.47;1.40;;;20.80;69.40;;;;;;4972921;28;20677;-84
2022/06/24 03:47:16;;;;;;;2.83;1.50;;;20.90;69.40;;;;;;4984284;28;20035;-78
2022/06/24 03:49:41;;;;;;;3.15;1.45;;;20.90;69.50;;;;;;4980070;28;20053;-79
2022/06/24 03:52:07;;;;;;;3.42;1.50;;;20.90;69.80;;;;;;4982611;28;20498;-79
2022/06/24 03:54:33;;;;;;;3.60;1.30;;;20.90;70.20;;;;;;4976773;28;20066;-80
2022/06/24 03:56:59;;;;;;;5.05;1.00;;;20.90;70.30;;;;;;4971933;28;20152;-79
2022/06/24 03:59:24;;;;;;;3.30;1.30;;;20.90;69.90;;;;;;4973834;28;20172;-79
2022/06/24 04:01:50;;;;;;;2.55;1.10;;;21.00;70.00;;;;;;4988631;28;20052;-82
2022/06/24 04:04:15;;;;;;;1.90;1.10;;;21.00;70.50;;;;;;4983109;28;20046;-79
2022/06/24 04:06:41;;;;;;;4.60;1.27;;;21.00;70.70;;;;;;4985329;28;20446;-79
2022/06/24 04:09:07;;;;;;;2.65;1.52;;;21.00;70.90;;;;;;4990329;28;20490;-80
2022/06/24 04:11:33;;;;;;;1.98;1.33;;;21.00;70.60;;;;;;4982032;28;20034;-81
2022/06/24 04:14:02;;;;;;;3.03;1.67;;;21.00;70.70;;;;;;4992352;28;20031;-80
2022/06/24 04:16:27;;;;;;;2.45;1.30;;;21.00;71.40;;;;;;4984559;28;20101;-79
2022/06/24 04:18:54;;;;;;;3.13;1.17;;;21.10;70.90;;;;;;4987129;28;20038;-78
2022/06/24 04:21:20;;;;;;;2.03;1.40;;;21.10;70.80;;;;;;4985714;28;20451;-79
2022/06/24 04:23:49;;;;;;;5.95;1.85;;;21.10;71.40;;;;;;4979883;28;20034;-82
2022/06/24 04:26:15;;;;;;;2.03;1.60;;;21.10;70.80;;;;;;4982360;28;20045;-79
2022/06/24 04:28:41;;;;;;;1.92;1.33;;;21.10;71.80;;;;;;4978435;28;20034;-82
2022/06/24 04:31:06;;;;;;;3.67;1.45;;;21.20;71.30;;;;;;4980055;28;20077;-79
2022/06/24 04:33:32;;;;;;;2.00;1.25;;;21.20;71.10;;;;;;4989172;28;20034;-78
2022/06/24 04:35:57;;;;;;;4.13;1.50;;;21.20;70.90;;;;;;4985534;28;20066;-79
2022/06/24 04:38:23;;;;;;;5.65;1.45;;;21.30;71.80;;;;;;4983461;28;20030;-82
2022/06/24 04:40:49;;;;;;;3.92;1.90;;;21.30;71.30;;;;;;4988557;28;20030;-78
2022/06/24 04:43:14;;;;;;;3.65;1.63;;;21.30;71.70;;;;;;4989667;28;20048;-80
2022/06/24 04:45:40;;;;;;;4.28;1.35;;;21.30;71.80;;;;;;4986437;28;20289;-79
2022/06/24 04:48:06;;;;;;;4.50;1.52;;;21.40;72.00;;;;;;4978701;28;20042;-81
2022/06/24 04:50:32;;;;;;;4.72;1.42;;;21.50;71.60;;;;;;4978148;28;20042;-81
2022/06/24 04:52:57;;;;;;;4.88;1.73;;;21.50;71.70;;;;;;4976607;28;20038;-78
2022/06/24 04:55:23;;;;;;;6.18;1.42;;;21.50;72.30;;;;;;4980945;28;20045;-81
2022/06/24 04:57:49;;;;;;;5.45;1.40;;;21.60;71.70;;;;;;4979011;28;20121;-79
2022/06/24 05:00:15;;;;;;;4.55;1.50;;;21.60;71.60;;;;;;4969596;28;20137;-79
2022/06/24 05:02:41;;;;;;;3.75;1.58;;;21.70;72.00;;;;;;4981231;28;20661;-79
2022/06/24 05:05:13;;;;;;;2.80;1.10;;;21.70;72.00;;;;;;4980409;28;20117;-81
2022/06/24 05:07:39;;;;;;;3.65;1.60;;;21.70;71.70;;;;;;4975722;28;20034;-79
2022/06/24 05:10:06;;;;;;;4.05;1.35;;;21.80;71.60;;;;;;4973699;28;20034;-79
2022/06/24 05:12:31;;;;;;;1.73;1.30;;;21.80;71.60;;;;;;4973731;28;20612;-82
2022/06/24 05:14:57;;;;;;;4.10;1.27;;;21.90;71.90;;;;;;4984398;28;20060;-80
2022/06/24 05:17:24;;;;;;;5.38;1.25;;;21.90;71.60;;;;;;4986881;28;20030;-83
2022/06/24 05:19:51;;;;;;;4.68;1.30;;;21.90;71.50;;;;;;4983272;28;20038;-79
2022/06/24 05:22:16;;;;;;;8.80;1.95;;;22.00;72.10;;;;;;4977764;28;20103;-82
2022/06/24 05:24:42;;;;;;;3.08;1.40;;;22.00;72.40;;;;;;4980304;28;20185;-79
2022/06/24 05:27:08;;;;;;;2.30;1.30;;;22.00;71.40;;;;;;4981919;28;20031;-81
2022/06/24 05:29:33;;;;;;;1.75;1.20;;;22.10;71.60;;;;;;4982273;28;20046;-81
2022/06/24 05:31:59;;;;;;;5.55;1.90;;;22.10;72.10;;;;;;4977949;28;20027;-80
2022/06/24 05:34:25;;;;;;;4.85;1.27;;;22.20;72.10;;;;;;4974146;28;20041;-81
2022/06/24 05:36:50;;;;;;;7.80;1.40;;;22.30;72.00;;;;;;4982767;28;20030;-81
2022/06/24 05:39:15;;;;;;;2.88;1.17;;;22.30;71.50;;;;;;4972465;28;20022;-80
2022/06/24 05:41:42;;;;;;;2.45;1.33;;;22.40;71.60;;;;;;4980316;28;20043;-81
2022/06/24 05:44:08;;;;;;;3.50;1.33;;;22.40;71.60;;;;;;4972361;28;20031;-80
2022/06/24 05:46:34;;;;;;;3.45;1.30;;;22.50;71.60;;;;;;4986552;28;20042;-81
2022/06/24 05:49:00;;;;;;;4.47;1.50;;;22.60;71.70;;;;;;4989271;28;20561;-81
2022/06/24 05:51:26;;;;;;;7.60;1.75;;;22.70;71.00;;;;;;4978974;28;20046;-81
2022/06/24 05:56:36;;;;;;;4.38;1.20;;;22.80;70.80;;;;;;4976011;28;20076;-80
2022/06/24 05:59:03;;;;;;;2.13;1.42;;;22.90;71.00;;;;;;4978241;28;20565;-82
2022/06/24 06:01:29;;;;;;;3.80;1.52;;;23.00;71.10;;;;;;4991420;28;20077;-81
2022/06/24 06:03:54;;;;;;;3.10;1.38;;;23.10;71.30;;;;;;4991129;28;20045;-80
2022/06/24 06:06:20;;;;;;;6.65;1.63;;;23.20;69.70;;;;;;4991069;28;20037;-82
2022/06/24 06:08:46;;;;;;;3.40;1.50;;;23.20;69.30;;;;;;4983289;28;20054;-81
2022/06/24 06:11:17;;;;;;;9.85;1.55;;;23.30;70.60;;;;;;4980850;28;20094;-80
2022/06/24 06:13:44;;;;;;;2.92;1.35;;;23.40;69.30;;;;;;4980155;28;20026;-80
2022/06/24 06:16:10;;;;;;;4.82;1.52;;;23.40;70.50;;;;;;4989312;28;20041;-81
2022/06/24 06:18:36;;;;;;;4.20;2.25;;;23.50;70.90;;;;;;4978610;28;20221;-80
2022/06/24 06:21:03;;;;;;;5.88;1.30;;;23.60;69.80;;;;;;4988368;28;20041;-81
2022/06/24 06:23:29;;;;;;;2.63;1.58;;;23.70;69.70;;;;;;4988545;28;20038;-82
2022/06/24 06:25:56;;;;;;;9.85;1.38;;;23.80;69.70;;;;;;4990004;28;20398;-82
2022/06/24 06:28:21;;;;;;;2.50;1.33;;;24.00;69.70;;;;;;4991884;28;20034;-82
2022/06/24 06:30:47;;;;;;;3.38;1.27;;;24.30;69.20;;;;;;4990822;28;20085;-82
2022/06/24 06:33:12;;;;;;;3.03;1.40;;;24.50;67.70;;;;;;4991049;28;20030;-82
2022/06/24 06:35:38;;;;;;;2.95;1.23;;;24.60;67.20;;;;;;4990455;28;20541;-81
2022/06/24 06:38:03;;;;;;;2.65;1.00;;;24.70;67.50;;;;;;4988708;28;20054;-82
2022/06/24 06:40:29;;;;;;;2.58;1.25;;;24.80;67.00;;;;;;4974734;28;20026;-81
2022/06/24 06:42:55;;;;;;;6.55;1.20;;;24.80;67.10;;;;;;4989068;28;20081;-82
2022/06/24 06:45:21;;;;;;;3.80;1.42;;;24.90;66.50;;;;;;4979365;28;20069;-80
2022/06/24 06:47:47;;;;;;;3.17;1.15;;;24.90;66.60;;;;;;4980673;28;20400;-80
2022/06/24 06:50:12;;;;;;;3.03;1.25;;;25.00;65.50;;;;;;4978164;28;20042;-81
2022/06/24 06:52:40;;;;;;;4.10;1.15;;;25.00;65.90;;;;;;4977452;28;20577;-80
2022/06/24 06:55:05;;;;;;;3.80;0.93;;;25.10;64.50;;;;;;4985963;28;20026;-81
2022/06/24 06:57:31;;;;;;;1.80;0.93;;;25.20;64.90;;;;;;4982577;28;20046;-81
2022/06/24 06:59:56;;;;;;;0.90;0.80;;;25.30;65.00;;;;;;4985603;28;20041;-82
2022/06/24 07:02:22;;;;;;;1.80;1.17;;;25.50;65.60;;;;;;4981886;28;20026;-82
2022/06/24 07:04:48;;;;;;;5.20;1.20;;;25.60;64.50;;;;;;4980161;28;20038;-81
2022/06/24 07:07:13;;;;;;;1.52;0.77;;;25.90;64.00;;;;;;4986057;28;20088;-81
2022/06/24 07:09:39;;;;;;;3.42;1.00;;;26.00;62.30;;;;;;4994191;28;20676;-81
2022/06/24 07:12:06;;;;;;;1.38;0.90;;;26.20;62.80;;;;;;4983123;28;20031;-82
2022/06/24 07:14:31;;;;;;;1.27;0.70;;;26.40;61.70;;;;;;4992985;28;20030;-81
2022/06/24 07:16:57;;;;;;;2.13;0.90;;;26.60;61.30;;;;;;4991738;28;20041;-81
2022/06/24 07:19:23;;;;;;;3.33;0.82;;;26.70;61.50;;;;;;4988810;28;20030;-82
2022/06/24 07:21:48;;;;;;;3.83;0.90;;;26.90;59.90;;;;;;4985311;28;20027;-84
2022/06/24 07:24:14;;;;;;;4.30;0.85;;;27.10;59.00;;;;;;4984418;28;20085;-80
2022/06/24 07:26:40;;;;;;;3.08;0.73;;;27.40;60.70;;;;;;4974616;28;20421;-82
2022/06/24 07:29:05;;;;;;;5.43;0.98;;;27.50;59.50;;;;;;4984303;28;20034;-75
2022/06/24 07:31:31;;;;;;;4.28;0.60;;;27.70;57.90;;;;;;4995897;28;20106;-74
2022/06/24 07:33:56;;;;;;;4.70;0.90;;;27.80;56.00;;;;;;4977665;28;20029;-77
2022/06/24 07:36:22;;;;;;;1.65;0.88;;;27.90;57.40;;;;;;4980327;28;20035;-75
2022/06/24 07:38:48;;;;;;;1.08;0.75;;;28.10;55.40;;;;;;4977377;28;20825;-82
2022/06/24 07:41:14;;;;;;;3.75;1.00;;;28.20;55.70;;;;;;4983144;28;20030;-83
2022/06/24 07:43:39;;;;;;;6.07;0.63;;;28.30;57.60;;;;;;5002036;28;20088;-82
2022/06/24 07:46:08;;;;;;;2.63;0.90;;;28.40;55.70;;;;;;4983285;28;20038;-82
2022/06/24 07:48:35;;;;;;;2.30;0.70;;;28.60;55.60;;;;;;4992550;28;20085;-86
2022/06/24 07:51:16;;;;;;;3.75;0.60;;;28.70;55.10;;;;;;4973440;28;20046;-84
2022/06/24 07:53:43;;;;;;;3.15;0.60;;;28.80;53.90;;;;;;4976369;28;20030;-85
2022/06/24 07:58:53;;;;;;;1.48;0.68;;;29.10;54.20;;;;;;4976631;28;20029;-82
2022/06/24 08:01:18;;;;;;;0.60;0.40;;;29.20;54.00;;;;;;5001594;28;20042;-82
2022/06/24 08:03:44;;;;;;;1.40;0.80;;;29.30;54.20;;;;;;4983777;28;20038;-84
2022/06/24 08:06:10;;;;;;;1.70;0.60;;;29.40;52.40;;;;;;4973548;28;20042;-82
2022/06/24 08:08:36;;;;;;;1.77;0.50;;;29.50;50.80;;;;;;4977358;28;20032;-82
2022/06/24 08:11:01;;;;;;;1.42;0.47;;;29.60;50.80;;;;;;4976571;28;20031;-83
2022/06/24 08:13:27;;;;;;;1.80;0.40;;;29.70;50.80;;;;;;4979872;28;20121;-82
2022/06/24 08:15:53;;;;;;;1.05;0.50;;;29.80;50.00;;;;;;4979345;28;20585;-84
2022/06/24 08:18:19;;;;;;;1.48;0.57;;;29.80;51.20;;;;;;4979783;28;20031;-82
2022/06/24 08:20:44;;;;;;;0.88;0.50;;;29.80;51.30;;;;;;4982402;28;20033;-82
2022/06/24 08:23:10;;;;;;;3.42;0.70;;;30.00;51.40;;;;;;4975340;28;20026;-82
2022/06/24 08:25:36;;;;;;;2.35;0.50;;;30.10;49.40;;;;;;4974394;28;20415;-82
2022/06/24 08:28:01;;;;;;;0.90;0.50;;;30.20;49.30;;;;;;4985962;28;20077;-82
2022/06/24 08:30:27;;;;;;;2.58;0.68;;;30.30;50.00;;;;;;4986204;28;20038;-82
2022/06/24 08:32:52;;;;;;;7.93;0.85;;;30.40;49.10;;;;;;4989296;28;20518;-81
2022/06/24 08:35:18;;;;;;;3.33;0.70;;;30.60;48.80;;;;;;4983810;28;20075;-82
2022/06/24 08:37:44;;;;;;;2.25;0.68;;;30.80;50.90;;;;;;4982323;28;20035;-81
2022/06/24 08:40:10;;;;;;;2.53;0.68;;;30.80;49.30;;;;;;4994753;28;20491;-84
2022/06/24 08:42:38;;;;;;;2.72;0.80;;;30.90;50.50;;;;;;4997722;28;20035;-84
2022/06/24 08:45:04;;;;;;;11.32;0.80;;;31.00;49.60;;;;;;4983421;28;20040;-81
2022/06/24 08:47:30;;;;;;;1.25;0.60;;;31.20;49.20;;;;;;4984933;28;20122;-82
2022/06/24 08:49:56;;;;;;;1.13;0.50;;;31.20;49.30;;;;;;4987852;28;20034;-83
2022/06/24 08:52:22;;;;;;;2.47;0.80;;;31.30;50.30;;;;;;4988429;28;20587;-81
2022/06/24 08:54:49;;;;;;;1.88;0.60;;;31.40;48.20;;;;;;4986935;28;20490;-82
2022/06/24 08:57:15;;;;;;;2.97;0.70;;;31.40;47.90;;;;;;4997928;28;20471;-82
2022/06/24 08:59:45;;;;;;;1.83;0.57;;;31.40;47.40;;;;;;4980286;28;20039;-81
2022/06/24 09:02:14;;;;;;;1.83;0.95;;;31.50;48.70;;;;;;5001906;28;20422;-82
2022/06/24 09:04:44;;;;;;;1.13;0.70;;;31.50;49.90;;;;;;4989681;28;20041;-85
2022/06/24 09:07:17;;;;;;;2.63;0.75;;;31.60;47.30;;;;;;4991229;28;20049;-81
2022/06/24 09:09:59;;;;;;;2.90;0.60;;;31.70;48.30;;;;;;4991977;28;20045;-82
2022/06/24 09:12:29;;;;;;;5.13;0.93;;;31.80;48.80;;;;;;4988752;28;20041;-81
2022/06/24 09:14:54;;;;;;;3.03;0.90;;;32.00;49.40;;;;;;4983333;28;20034;-83
2022/06/24 09:17:28;;;;;;;1.77;0.70;;;32.10;47.50;;;;;;4984421;28;20042;-82
2022/06/24 09:20:16;;;;;;;1.42;0.70;;;32.20;48.60;;;;;;4981250;28;20157;-81
2022/06/24 09:22:42;;;;;;;1.75;0.95;;;32.30;47.60;;;;;;4991507;28;20038;-81
2022/06/24 09:25:08;;;;;;;2.35;0.98;;;32.30;47.40;;;;;;4991644;28;20034;-82
2022/06/24 09:27:35;;;;;;;3.30;0.93;;;32.40;46.90;;;;;;5010254;28;20466;-83
2022/06/24 09:30:01;;;;;;;1.55;0.65;;;32.40;48.40;;;;;;4981086;28;20164;-81
2022/06/24 09:32:28;;;;;;;2.00;0.82;;;32.50;49.90;;;;;;4984334;28;20117;-81
2022/06/24 09:35:03;;;;;;;1.73;0.80;;;32.60;49.30;;;;;;4980958;28;20180;-82
2022/06/24 09:37:38;;;;;;;1.17;0.65;;;32.70;48.10;;;;;;4981644;28;20081;-83
2022/06/24 09:40:21;;;;;;;4.35;0.77;;;32.80;46.70;;;;;;4978758;28;20035;-80
2022/06/24 09:43:09;;;;;;;3.00;0.88;;;32.80;50.50;;;;;;4991117;28;20364;-81
2022/06/24 09:45:49;;;;;;;2.72;1.08;;;32.80;50.50;;;;;;4988662;28;20073;-82
2022/06/24 09:48:32;;;;;;;2.70;1.02;;;32.80;46.90;;;;;;5000478;28;20042;-81
2022/06/24 09:51:04;;;;;;;2.83;0.90;;;32.90;47.90;;;;;;4988567;28;20113;-80
2022/06/24 09:53:37;;;;;;;3.60;0.60;;;33.00;47.30;;;;;;4993605;28;20062;-80
2022/06/24 09:56:07;;;;;;;6.47;1.15;;;33.10;49.30;;;;;;4989743;28;20034;-81
2022/06/24 09:58:34;;;;;;;2.15;0.88;;;33.10;47.10;;;;;;4993397;28;20022;-81
2022/06/24 10:01:00;;;;;;;3.20;0.90;;;33.20;47.90;;;;;;4983716;28;20054;-80
2022/06/24 10:03:27;;;;;;;1.50;1.00;;;33.30;46.90;;;;;;4981416;28;20031;-82
2022/06/24 10:05:57;;;;;;;2.65;0.90;;;33.40;47.30;;;;;;4995882;28;20466;-81
2022/06/24 10:08:24;;;;;;;1.63;0.88;;;33.30;48.00;;;;;;4987053;28;20035;-82
2022/06/24 10:10:51;;;;;;;4.35;1.00;;;33.40;47.80;;;;;;4983857;28;20041;-81
2022/06/24 10:13:32;;;;;;;3.38;1.20;;;33.50;47.10;;;;;;4992796;28;20029;-80
2022/06/24 10:15:59;;;;;;;7.22;1.00;;;33.50;46.90;;;;;;4990846;28;20073;-80
2022/06/24 10:18:40;;;;;;;1.23;1.00;;;33.50;47.20;;;;;;4990288;28;20026;-80
2022/06/24 10:21:07;;;;;;;2.67;0.95;;;33.40;49.90;;;;;;4984745;28;20035;-80
2022/06/24 10:23:52;;;;;;;13.35;2.30;;;33.40;48.80;;;;;;4987413;28;20101;-79
2022/06/24 10:26:32;;;;;;;13.98;2.50;;;33.20;52.40;;;;;;4985220;28;20056;-80
2022/06/24 10:29:04;;;;;;;6.10;2.10;;;32.90;54.60;;;;;;4985354;28;20060;-80
2022/06/24 10:31:42;;;;;;;8.00;1.83;;;32.40;55.90;;;;;;4977412;28;20117;-79
2022/06/24 10:34:25;;;;;;;4.90;2.40;;;31.80;57.10;;;;;;4989979;28;20041;-79
2022/06/24 10:36:52;;;;;;;4.30;2.22;;;31.20;58.30;;;;;;4980265;28;20498;-81
2022/06/24 10:39:20;;;;;;;7.43;2.85;;;30.80;59.10;;;;;;4989953;28;20029;-80
2022/06/24 10:41:46;;;;;;;12.50;2.33;;;30.50;60.20;;;;;;4987452;28;20368;-80
2022/06/24 10:44:21;;;;;;;3.53;2.08;;;30.20;61.10;;;;;;4975786;28;20459;-80
2022/06/24 10:46:46;;;;;;;3.72;1.90;;;29.90;62.40;;;;;;4981705;28;20121;-81
2022/06/24 10:49:12;;;;;;;3.60;1.95;;;29.80;63.30;;;;;;4980361;28;20125;-80
2022/06/24 10:51:38;;;;;;;5.30;1.88;;;29.60;63.60;;;;;;4984934;28;20113;-80
2022/06/24 10:54:06;;;;;;;4.20;2.13;;;29.50;63.60;;;;;;4981381;28;20495;-81
2022/06/24 10:56:49;;;;;;;7.55;1.92;;;29.40;64.30;;;;;;4983223;28;20062;-81
2022/06/24 10:59:18;;;;;;;3.85;1.63;;;29.20;64.40;;;;;;4988448;28;20030;-80
2022/06/24 11:01:46;;;;;;;5.93;2.10;;;28.90;65.30;;;;;;4985415;28;20022;-81
2022/06/24 11:04:22;;;;;;;2.42;1.55;;;28.80;66.30;;;;;;4984579;28;20042;-81
2022/06/24 11:07:08;;;;;;;1.70;1.50;;;28.70;67.10;;;;;;4985654;28;20034;-82
2022/06/24 11:09:35;;;;;;;2.55;1.73;;;28.50;67.50;;;;;;4989422;28;20081;-81
2022/06/24 11:12:02;;;;;;;3.50;2.08;;;28.40;67.30;;;;;;4992628;28;20034;-81
2022/06/24 11:14:28;;;;;;;4.45;1.70;;;28.40;67.80;;;;;;4998916;28;20490;-79
2022/06/24 11:16:53;;;;;;;2.17;1.13;;;28.40;67.80;;;;;;4995418;28;20061;-82
2022/06/24 11:19:19;;;;;;;4.03;1.50;;;28.30;67.40;;;;;;4982623;28;20365;-80
2022/06/24 11:21:49;;;;;;;6.68;1.30;;;28.10;67.90;;;;;;4986435;28;20635;-79
2022/06/24 11:24:18;;;;;;;3.92;1.60;;;28.00;68.20;;;;;;4984788;28;20483;-81
2022/06/24 11:27:03;;;;;;;2.35;1.60;;;28.00;69.20;;;;;;4986433;28;20125;-80
2022/06/24 11:29:57;;;;;;;5.15;1.98;;;27.90;71.00;;;;;;4987277;28;20046;-80
2022/06/24 11:32:24;;;;;;;2.95;1.80;;;27.90;71.00;;;;;;4984514;28;20022;-80
2022/06/24 11:34:49;;;;;;;4.35;1.38;;;27.90;71.00;;;;;;4989244;28;20037;-80
2022/06/24 11:37:23;;;;;;;4.10;1.80;;;27.80;71.10;;;;;;4985494;28;20034;-80
2022/06/24 11:39:55;;;;;;;8.00;1.60;;;27.80;71.30;;;;;;4984208;28;20502;-81
2022/06/24 11:42:24;;;;;;;3.95;1.63;;;27.90;72.30;;;;;;4992232;28;20038;-80
2022/06/24 11:44:51;;;;;;;5.78;2.10;;;27.90;70.90;;;;;;4988395;28;20042;-80
2022/06/24 11:47:28;;;;;;;3.20;1.10;;;27.70;70.50;;;;;;4982609;28;20105;-75
2022/06/24 11:49:53;;;;;;;1.75;0.90;;;27.70;70.90;;;;;;4981571;28;20066;-75
2022/06/24 11:52:19;;;;;;;3.75;1.88;;;27.60;69.30;;;;;;4980248;28;20075;-73
2022/06/24 11:54:44;;;;;;;2.38;1.30;;;27.60;70.70;;;;;;4990857;28;20034;-76
2022/06/24 11:57:10;;;;;;;2.40;1.55;;;27.60;72.00;;;;;;4988689;28;20038;-75
2022/06/24 11:59:37;;;;;;;3.13;1.85;;;27.60;72.80;;;;;;4985153;28;20031;-73
2022/06/24 12:02:04;;;;;;;4.90;1.58;;;27.60;73.70;;;;;;4981321;28;20022;-82
2022/06/24 12:04:30;;;;;;;3.05;1.48;;;27.50;73.60;;;;;;4984078;28;20039;-82
2022/06/24 12:06:56;;;;;;;4.10;1.40;;;27.40;73.50;;;;;;4985192;28;20550;-82
2022/06/24 12:09:22;;;;;;;3.13;1.40;;;27.40;73.10;;;;;;4978603;28;20500;-82
2022/06/24 12:11:48;;;;;;;1.58;1.48;;;27.40;73.30;;;;;;4992467;28;20022;-81
2022/06/24 12:14:16;;;;;;;7.50;2.05;;;27.40;74.00;;;;;;4998738;28;20025;-80
2022/06/24 12:16:59;;;;;;;3.88;1.85;;;27.30;75.30;;;;;;4989858;28;20119;-79
2022/06/24 12:19:26;;;;;;;5.50;2.03;;;27.20;75.30;;;;;;4985108;28;20046;-79
2022/06/24 12:22:10;;;;;;;5.38;2.30;;;27.00;77.60;;;;;;4985817;28;20391;-79
2022/06/24 12:24:36;;;;;;;3.72;2.13;;;26.90;79.30;;;;;;4982442;28;20060;-79
2022/06/24 12:27:04;;;;;;;3.38;2.10;;;26.70;79.20;;;;;;4983336;28;20742;-78
2022/06/24 12:29:37;;;;;;;4.88;2.15;;;26.50;80.30;;;;;;4991660;28;20031;-79
2022/06/24 12:32:04;;;;;;;4.43;2.35;;;26.20;82.70;;;;;;4985262;28;20102;-79
2022/06/24 12:34:38;;;;;;;6.22;2.40;;;26.00;85.70;;;;;;4981395;28;20041;-79
2022/06/24 12:37:09;;;;;;;4.88;2.65;;;25.90;88.30;;;;;;4988991;28;20117;-79
2022/06/24 12:39:47;;;;;;;3.75;2.33;;;25.70;90.30;;;;;;4985692;28;20109;-79
2022/06/24 12:42:17;;;;;;;4.30;2.83;;;25.60;91.30;;;;;;4990904;28;20038;-80
2022/06/24 12:44:49;;;;;;;8.00;2.50;;;25.50;92.20;;;;;;4984542;28;20034;-78
2022/06/24 12:53:05;;;;;;;6.50;2.75;;;25.30;94.20;;;;;;4993976;28;20406;-80
2022/06/24 12:55:32;;;;;;;4.80;2.97;;;25.30;94.30;;;;;;5003529;28;20060;-79
2022/06/24 12:57:59;;;;;;;6.60;3.35;;;25.30;94.60;;;;;;4989232;28;20443;-79
2022/06/24 13:00:25;;;;;;;6.55;4.15;;;25.30;94.40;;;;;;5005302;28;20025;-79
2022/06/24 13:02:52;;;;;;;5.55;3.95;;;25.30;94.60;;;;;;5008929;28;20545;-79